sensor_id;sensor_type;location;lat;lon;timestamp;temperature;humidity
19847;DHT22;10084;50.518;8.588;2022-10-31T00:00:48;12.40;78.20
19847;DHT22;10084;50.518;8.588;2022-10-31T00:03:16;12.40;78.20
19847;DHT22;10084;50.518;8.588;2022-10-31T00:05:43;12.40;78.30
19847;DHT22;10084;50.518;8.588;2022-10-31T00:08:09;12.40;78.30
19847;DHT22;10084;50.518;8.588;2022-10-31T00:10:38;12.40;78.30
19847;DHT22;10084;50.518;8.588;2022-10-31T00:13:04;12.40;78.30
19847;DHT22;10084;50.518;8.588;2022-10-31T00:15:30;12.40;78.40
19847;DHT22;10084;50.518;8.588;2022-10-31T00:17:55;12.40;78.40
19847;DHT22;10084;50.518;8.588;2022-10-31T00:20:21;12.40;78.40
19847;DHT22;10084;50.518;8.588;2022-10-31T00:22:46;12.50;78.30
19847;DHT22;10084;50.518;8.588;2022-10-31T00:25:12;12.50;78.30
19847;DHT22;10084;50.518;8.588;2022-10-31T00:27:38;12.40;78.20
19847;DHT22;10084;50.518;8.588;2022-10-31T00:30:04;12.40;78.30
19847;DHT22;10084;50.518;8.588;2022-10-31T00:32:30;12.40;78.30
19847;DHT22;10084;50.518;8.588;2022-10-31T00:34:56;12.40;78.30
19847;DHT22;10084;50.518;8.588;2022-10-31T00:37:22;12.40;78.90
19847;DHT22;10084;50.518;8.588;2022-10-31T00:39:47;12.40;78.30
19847;DHT22;10084;50.518;8.588;2022-10-31T00:42:15;12.40;78.20
19847;DHT22;10084;50.518;8.588;2022-10-31T00:44:42;12.40;78.20
19847;DHT22;10084;50.518;8.588;2022-10-31T00:47:07;12.40;78.30
19847;DHT22;10084;50.518;8.588;2022-10-31T00:49:33;12.30;78.20
19847;DHT22;10084;50.518;8.588;2022-10-31T00:51:59;12.30;78.30
19847;DHT22;10084;50.518;8.588;2022-10-31T00:54:25;12.30;78.40
19847;DHT22;10084;50.518;8.588;2022-10-31T00:56:50;12.30;78.40
19847;DHT22;10084;50.518;8.588;2022-10-31T00:59:16;12.20;78.50
19847;DHT22;10084;50.518;8.588;2022-10-31T01:01:42;12.20;78.40
19847;DHT22;10084;50.518;8.588;2022-10-31T01:04:07;12.20;78.30
19847;DHT22;10084;50.518;8.588;2022-10-31T01:06:33;12.20;78.30
19847;DHT22;10084;50.518;8.588;2022-10-31T01:08:59;12.20;78.40
19847;DHT22;10084;50.518;8.588;2022-10-31T01:11:24;12.10;78.40
19847;DHT22;10084;50.518;8.588;2022-10-31T01:13:52;12.10;78.50
19847;DHT22;10084;50.518;8.588;2022-10-31T01:16:21;12.10;78.60
19847;DHT22;10084;50.518;8.588;2022-10-31T01:18:49;12.10;78.60
19847;DHT22;10084;50.518;8.588;2022-10-31T01:21:22;12.00;78.60
19847;DHT22;10084;50.518;8.588;2022-10-31T01:23:49;12.00;78.70
19847;DHT22;10084;50.518;8.588;2022-10-31T01:26:24;12.00;78.70
19847;DHT22;10084;50.518;8.588;2022-10-31T01:28:52;12.00;78.70
19847;DHT22;10084;50.518;8.588;2022-10-31T01:31:20;12.00;78.70
19847;DHT22;10084;50.518;8.588;2022-10-31T01:33:47;12.00;78.80
19847;DHT22;10084;50.518;8.588;2022-10-31T01:38:40;12.00;78.90
19847;DHT22;10084;50.518;8.588;2022-10-31T01:41:05;12.00;78.90
19847;DHT22;10084;50.518;8.588;2022-10-31T01:43:52;12.00;78.90
19847;DHT22;10084;50.518;8.588;2022-10-31T01:46:33;12.00;79.00
19847;DHT22;10084;50.518;8.588;2022-10-31T01:49:02;12.00;78.90
19847;DHT22;10084;50.518;8.588;2022-10-31T01:51:34;12.00;78.90
19847;DHT22;10084;50.518;8.588;2022-10-31T01:54:05;12.10;78.90
19847;DHT22;10084;50.518;8.588;2022-10-31T01:56:34;12.00;78.80
19847;DHT22;10084;50.518;8.588;2022-10-31T01:59:05;12.00;78.70
19847;DHT22;10084;50.518;8.588;2022-10-31T02:01:32;12.00;78.80
19847;DHT22;10084;50.518;8.588;2022-10-31T02:03:58;12.00;78.80
19847;DHT22;10084;50.518;8.588;2022-10-31T02:09:00;12.00;78.90
19847;DHT22;10084;50.518;8.588;2022-10-31T02:11:28;12.00;78.90
19847;DHT22;10084;50.518;8.588;2022-10-31T02:13:55;12.00;78.90
19847;DHT22;10084;50.518;8.588;2022-10-31T02:16:22;12.00;79.00
19847;DHT22;10084;50.518;8.588;2022-10-31T02:18:47;12.00;80.60
19847;DHT22;10084;50.518;8.588;2022-10-31T02:21:42;12.00;87.40
19847;DHT22;10084;50.518;8.588;2022-10-31T02:27:28;11.90;78.90
19847;DHT22;10084;50.518;8.588;2022-10-31T02:30:05;11.90;78.80
19847;DHT22;10084;50.518;8.588;2022-10-31T02:41:09;11.90;79.70
19847;DHT22;10084;50.518;8.588;2022-10-31T02:46:34;11.90;78.90
19847;DHT22;10084;50.518;8.588;2022-10-31T02:51:45;11.80;79.10
19847;DHT22;10084;50.518;8.588;2022-10-31T02:54:26;11.90;79.00
19847;DHT22;10084;50.518;8.588;2022-10-31T02:57:05;11.90;78.90
19847;DHT22;10084;50.518;8.588;2022-10-31T02:59:33;11.80;78.90
19847;DHT22;10084;50.518;8.588;2022-10-31T03:02:09;11.80;79.00
19847;DHT22;10084;50.518;8.588;2022-10-31T03:07:41;11.80;87.60
19847;DHT22;10084;50.518;8.588;2022-10-31T03:10:16;11.80;94.50
19847;DHT22;10084;50.518;8.588;2022-10-31T03:15:55;11.70;78.70
19847;DHT22;10084;50.518;8.588;2022-10-31T03:18:29;11.70;79.20
19847;DHT22;10084;50.518;8.588;2022-10-31T03:21:00;11.70;79.20
19847;DHT22;10084;50.518;8.588;2022-10-31T03:23:28;11.70;79.20
19847;DHT22;10084;50.518;8.588;2022-10-31T03:25:54;11.70;79.30
19847;DHT22;10084;50.518;8.588;2022-10-31T03:28:29;11.70;79.50
19847;DHT22;10084;50.518;8.588;2022-10-31T03:30:56;11.70;79.80
19847;DHT22;10084;50.518;8.588;2022-10-31T03:33:28;11.70;80.50
19847;DHT22;10084;50.518;8.588;2022-10-31T03:35:58;11.70;81.20
19847;DHT22;10084;50.518;8.588;2022-10-31T03:38:25;11.70;83.50
19847;DHT22;10084;50.518;8.588;2022-10-31T03:40:54;11.50;87.90
19847;DHT22;10084;50.518;8.588;2022-10-31T03:43:24;11.70;80.70
19847;DHT22;10084;50.518;8.588;2022-10-31T03:45:51;11.80;85.60
19847;DHT22;10084;50.518;8.588;2022-10-31T03:48:19;11.80;90.00
19847;DHT22;10084;50.518;8.588;2022-10-31T03:50:58;11.80;91.20
19847;DHT22;10084;50.518;8.588;2022-10-31T03:54:13;11.60;79.20
19847;DHT22;10084;50.518;8.588;2022-10-31T03:56:40;11.60;79.30
19847;DHT22;10084;50.518;8.588;2022-10-31T03:59:17;11.60;79.40
19847;DHT22;10084;50.518;8.588;2022-10-31T04:01:49;11.50;79.50
19847;DHT22;10084;50.518;8.588;2022-10-31T04:04:19;11.50;79.50
19847;DHT22;10084;50.518;8.588;2022-10-31T04:06:49;11.60;79.70
19847;DHT22;10084;50.518;8.588;2022-10-31T04:09:16;11.60;79.70
19847;DHT22;10084;50.518;8.588;2022-10-31T04:11:48;11.60;80.00
19847;DHT22;10084;50.518;8.588;2022-10-31T04:14:32;11.60;87.40
19847;DHT22;10084;50.518;8.588;2022-10-31T04:17:01;11.60;79.70
19847;DHT22;10084;50.518;8.588;2022-10-31T04:19:34;11.60;79.60
19847;DHT22;10084;50.518;8.588;2022-10-31T04:22:00;11.60;79.40
19847;DHT22;10084;50.518;8.588;2022-10-31T04:24:26;11.60;79.50
19847;DHT22;10084;50.518;8.588;2022-10-31T04:26:51;11.60;79.40
19847;DHT22;10084;50.518;8.588;2022-10-31T04:29:19;11.60;79.50
19847;DHT22;10084;50.518;8.588;2022-10-31T04:31:45;11.60;79.60
19847;DHT22;10084;50.518;8.588;2022-10-31T04:34:11;11.60;79.60
19847;DHT22;10084;50.518;8.588;2022-10-31T04:36:37;11.60;79.50
19847;DHT22;10084;50.518;8.588;2022-10-31T04:39:03;11.60;79.60
19847;DHT22;10084;50.518;8.588;2022-10-31T04:41:37;11.60;79.60
19847;DHT22;10084;50.518;8.588;2022-10-31T04:44:15;11.60;79.60
19847;DHT22;10084;50.518;8.588;2022-10-31T04:46:41;11.60;79.60
19847;DHT22;10084;50.518;8.588;2022-10-31T04:49:08;11.60;82.50
19847;DHT22;10084;50.518;8.588;2022-10-31T04:51:34;11.60;89.40
19847;DHT22;10084;50.518;8.588;2022-10-31T04:54:00;11.60;88.40
19847;DHT22;10084;50.518;8.588;2022-10-31T04:56:55;11.60;82.80
19847;DHT22;10084;50.518;8.588;2022-10-31T04:59:22;11.60;91.80
19847;DHT22;10084;50.518;8.588;2022-10-31T05:01:52;11.50;79.10
19847;DHT22;10084;50.518;8.588;2022-10-31T05:04:25;11.50;79.00
19847;DHT22;10084;50.518;8.588;2022-10-31T05:06:51;11.40;79.00
19847;DHT22;10084;50.518;8.588;2022-10-31T05:09:16;11.40;79.20
19847;DHT22;10084;50.518;8.588;2022-10-31T05:11:42;11.30;79.20
19847;DHT22;10084;50.518;8.588;2022-10-31T05:14:22;11.30;79.40
19847;DHT22;10084;50.518;8.588;2022-10-31T05:17:06;11.30;79.50
19847;DHT22;10084;50.518;8.588;2022-10-31T05:19:52;11.30;79.60
19847;DHT22;10084;50.518;8.588;2022-10-31T05:22:49;11.30;79.60
19847;DHT22;10084;50.518;8.588;2022-10-31T05:25:16;11.30;79.50
19847;DHT22;10084;50.518;8.588;2022-10-31T05:27:44;11.30;79.60
19847;DHT22;10084;50.518;8.588;2022-10-31T05:30:12;11.30;79.70
19847;DHT22;10084;50.518;8.588;2022-10-31T05:32:43;11.30;79.70
19847;DHT22;10084;50.518;8.588;2022-10-31T05:35:30;11.30;79.70
19847;DHT22;10084;50.518;8.588;2022-10-31T05:38:22;11.20;79.90
19847;DHT22;10084;50.518;8.588;2022-10-31T05:40:48;11.30;80.10
19847;DHT22;10084;50.518;8.588;2022-10-31T05:43:14;11.20;80.10
19847;DHT22;10084;50.518;8.588;2022-10-31T05:45:40;11.20;80.20
19847;DHT22;10084;50.518;8.588;2022-10-31T05:48:13;11.20;80.40
19847;DHT22;10084;50.518;8.588;2022-10-31T05:50:57;11.30;84.20
19847;DHT22;10084;50.518;8.588;2022-10-31T05:53:24;11.30;92.60
19847;DHT22;10084;50.518;8.588;2022-10-31T05:55:49;11.30;92.40
19847;DHT22;10084;50.518;8.588;2022-10-31T05:58:20;11.30;80.30
19847;DHT22;10084;50.518;8.588;2022-10-31T06:00:57;11.30;80.30
19847;DHT22;10084;50.518;8.588;2022-10-31T06:03:23;11.30;80.40
19847;DHT22;10084;50.518;8.588;2022-10-31T06:05:55;11.40;80.40
19847;DHT22;10084;50.518;8.588;2022-10-31T06:08:23;11.40;80.50
19847;DHT22;10084;50.518;8.588;2022-10-31T06:10:49;11.40;80.50
19847;DHT22;10084;50.518;8.588;2022-10-31T06:13:21;11.50;80.50
19847;DHT22;10084;50.518;8.588;2022-10-31T06:15:53;11.50;80.40
19847;DHT22;10084;50.518;8.588;2022-10-31T06:18:22;11.60;80.40
19847;DHT22;10084;50.518;8.588;2022-10-31T06:20:50;11.60;80.30
19847;DHT22;10084;50.518;8.588;2022-10-31T06:23:16;11.60;80.10
19847;DHT22;10084;50.518;8.588;2022-10-31T06:25:48;11.70;80.30
19847;DHT22;10084;50.518;8.588;2022-10-31T06:28:14;11.70;80.30
19847;DHT22;10084;50.518;8.588;2022-10-31T06:30:49;11.70;80.30
19847;DHT22;10084;50.518;8.588;2022-10-31T06:33:15;11.70;80.30
19847;DHT22;10084;50.518;8.588;2022-10-31T06:35:49;11.60;80.20
19847;DHT22;10084;50.518;8.588;2022-10-31T06:38:17;11.60;80.40
19847;DHT22;10084;50.518;8.588;2022-10-31T06:40:42;11.60;80.70
19847;DHT22;10084;50.518;8.588;2022-10-31T06:43:16;11.60;81.00
19847;DHT22;10084;50.518;8.588;2022-10-31T06:45:43;11.60;81.10
19847;DHT22;10084;50.518;8.588;2022-10-31T06:48:14;11.70;81.20
19847;DHT22;10084;50.518;8.588;2022-10-31T06:51:00;11.80;81.20
19847;DHT22;10084;50.518;8.588;2022-10-31T06:53:27;11.90;81.20
19847;DHT22;10084;50.518;8.588;2022-10-31T06:55:58;11.90;81.10
19847;DHT22;10084;50.518;8.588;2022-10-31T06:58:24;12.00;81.20
19847;DHT22;10084;50.518;8.588;2022-10-31T07:00:52;12.10;81.40
19847;DHT22;10084;50.518;8.588;2022-10-31T07:03:18;12.20;81.40
19847;DHT22;10084;50.518;8.588;2022-10-31T07:05:46;12.20;81.20
19847;DHT22;10084;50.518;8.588;2022-10-31T07:08:14;12.30;81.10
19847;DHT22;10084;50.518;8.588;2022-10-31T07:10:42;12.30;81.20
19847;DHT22;10084;50.518;8.588;2022-10-31T07:13:11;12.50;81.20
19847;DHT22;10084;50.518;8.588;2022-10-31T07:15:40;12.50;81.20
19847;DHT22;10084;50.518;8.588;2022-10-31T07:18:08;12.70;81.20
19847;DHT22;10084;50.518;8.588;2022-10-31T07:20:34;12.80;81.80
19847;DHT22;10084;50.518;8.588;2022-10-31T07:23:01;12.90;81.10
19847;DHT22;10084;50.518;8.588;2022-10-31T07:25:28;13.00;81.10
19847;DHT22;10084;50.518;8.588;2022-10-31T07:28:10;13.10;80.90
19847;DHT22;10084;50.518;8.588;2022-10-31T07:30:36;13.20;80.60
19847;DHT22;10084;50.518;8.588;2022-10-31T07:33:04;13.30;80.60
19847;DHT22;10084;50.518;8.588;2022-10-31T07:35:56;13.40;80.60
19847;DHT22;10084;50.518;8.588;2022-10-31T07:38:27;13.40;80.50
19847;DHT22;10084;50.518;8.588;2022-10-31T07:40:53;13.50;80.60
19847;DHT22;10084;50.518;8.588;2022-10-31T07:43:19;13.60;80.60
19847;DHT22;10084;50.518;8.588;2022-10-31T07:46:09;13.70;80.50
19847;DHT22;10084;50.518;8.588;2022-10-31T07:48:53;13.70;80.50
19847;DHT22;10084;50.518;8.588;2022-10-31T07:51:37;13.80;80.30
19847;DHT22;10084;50.518;8.588;2022-10-31T07:54:41;13.80;80.20
19847;DHT22;10084;50.518;8.588;2022-10-31T07:57:08;13.90;80.10
19847;DHT22;10084;50.518;8.588;2022-10-31T07:59:34;13.90;80.10
19847;DHT22;10084;50.518;8.588;2022-10-31T08:01:59;13.90;80.20
19847;DHT22;10084;50.518;8.588;2022-10-31T08:04:31;14.00;80.40
19847;DHT22;10084;50.518;8.588;2022-10-31T08:07:15;14.00;80.50
19847;DHT22;10084;50.518;8.588;2022-10-31T08:09:47;14.10;80.60
19847;DHT22;10084;50.518;8.588;2022-10-31T08:12:18;14.10;81.10
19847;DHT22;10084;50.518;8.588;2022-10-31T08:14:44;14.20;80.30
19847;DHT22;10084;50.518;8.588;2022-10-31T08:17:11;14.20;80.30
19847;DHT22;10084;50.518;8.588;2022-10-31T08:19:44;14.20;80.40
19847;DHT22;10084;50.518;8.588;2022-10-31T08:22:13;14.30;80.60
19847;DHT22;10084;50.518;8.588;2022-10-31T08:24:39;14.40;80.40
19847;DHT22;10084;50.518;8.588;2022-10-31T08:27:04;14.40;80.30
19847;DHT22;10084;50.518;8.588;2022-10-31T08:29:31;14.50;80.30
19847;DHT22;10084;50.518;8.588;2022-10-31T08:31:57;14.60;80.20
19847;DHT22;10084;50.518;8.588;2022-10-31T08:34:41;14.60;80.10
19847;DHT22;10084;50.518;8.588;2022-10-31T08:37:36;14.60;80.30
19847;DHT22;10084;50.518;8.588;2022-10-31T08:40:04;14.70;80.40
19847;DHT22;10084;50.518;8.588;2022-10-31T08:42:33;14.80;80.40
19847;DHT22;10084;50.518;8.588;2022-10-31T08:44:59;14.90;80.30
19847;DHT22;10084;50.518;8.588;2022-10-31T08:47:25;15.00;80.30
19847;DHT22;10084;50.518;8.588;2022-10-31T08:49:53;15.10;80.30
19847;DHT22;10084;50.518;8.588;2022-10-31T08:52:23;15.20;80.10
19847;DHT22;10084;50.518;8.588;2022-10-31T08:54:49;15.30;79.80
19847;DHT22;10084;50.518;8.588;2022-10-31T08:57:33;15.30;79.70
19847;DHT22;10084;50.518;8.588;2022-10-31T08:59:59;15.40;79.90
19847;DHT22;10084;50.518;8.588;2022-10-31T09:02:31;15.50;79.80
19847;DHT22;10084;50.518;8.588;2022-10-31T09:04:59;15.60;79.80
19847;DHT22;10084;50.518;8.588;2022-10-31T09:07:25;15.80;79.70
19847;DHT22;10084;50.518;8.588;2022-10-31T09:09:52;15.90;80.30
19847;DHT22;10084;50.518;8.588;2022-10-31T09:12:18;16.10;79.40
19847;DHT22;10084;50.518;8.588;2022-10-31T09:15:03;16.20;79.20
19847;DHT22;10084;50.518;8.588;2022-10-31T09:17:37;16.30;79.10
19847;DHT22;10084;50.518;8.588;2022-10-31T09:20:23;16.40;78.80
19847;DHT22;10084;50.518;8.588;2022-10-31T09:23:01;16.40;78.60
19847;DHT22;10084;50.518;8.588;2022-10-31T09:25:28;16.40;79.00
19847;DHT22;10084;50.518;8.588;2022-10-31T09:28:33;16.50;79.30
19847;DHT22;10084;50.518;8.588;2022-10-31T09:31:06;16.50;78.70
19847;DHT22;10084;50.518;8.588;2022-10-31T09:33:49;16.60;78.60
19847;DHT22;10084;50.518;8.588;2022-10-31T09:36:39;16.80;78.80
19847;DHT22;10084;50.518;8.588;2022-10-31T09:39:08;17.30;79.30
19847;DHT22;10084;50.518;8.588;2022-10-31T09:50:21;20.20;74.00
19847;DHT22;10084;50.518;8.588;2022-10-31T09:53:03;20.40;73.10
19847;DHT22;10084;50.518;8.588;2022-10-31T09:55:39;20.40;72.70
19847;DHT22;10084;50.518;8.588;2022-10-31T09:58:13;20.30;73.10
19847;DHT22;10084;50.518;8.588;2022-10-31T10:00:40;20.60;73.50
19847;DHT22;10084;50.518;8.588;2022-10-31T10:03:26;21.00;72.70
19847;DHT22;10084;50.518;8.588;2022-10-31T10:06:13;21.30;71.60
19847;DHT22;10084;50.518;8.588;2022-10-31T10:09:15;21.20;71.30
19847;DHT22;10084;50.518;8.588;2022-10-31T10:12:28;20.80;71.80
19847;DHT22;10084;50.518;8.588;2022-10-31T10:15:20;20.60;72.40
19847;DHT22;10084;50.518;8.588;2022-10-31T10:18:37;20.30;73.00
19847;DHT22;10084;50.518;8.588;2022-10-31T10:27:37;20.10;74.10
19847;DHT22;10084;50.518;8.588;2022-10-31T10:30:14;20.10;74.20
19847;DHT22;10084;50.518;8.588;2022-10-31T10:32:45;20.10;74.40
19847;DHT22;10084;50.518;8.588;2022-10-31T10:38:23;20.00;74.40
19847;DHT22;10084;50.518;8.588;2022-10-31T10:40:52;19.90;74.80
19847;DHT22;10084;50.518;8.588;2022-10-31T10:43:26;19.90;75.00
19847;DHT22;10084;50.518;8.588;2022-10-31T10:49:30;19.80;75.20
19847;DHT22;10084;50.518;8.588;2022-10-31T10:55:16;19.70;75.30
19847;DHT22;10084;50.518;8.588;2022-10-31T11:00:21;19.60;75.50
19847;DHT22;10084;50.518;8.588;2022-10-31T11:02:48;19.60;75.50
19847;DHT22;10084;50.518;8.588;2022-10-31T11:05:22;19.60;75.30
19847;DHT22;10084;50.518;8.588;2022-10-31T11:07:48;19.60;75.20
19847;DHT22;10084;50.518;8.588;2022-10-31T11:10:15;19.50;75.00
19847;DHT22;10084;50.518;8.588;2022-10-31T11:12:43;19.50;74.90
19847;DHT22;10084;50.518;8.588;2022-10-31T11:15:24;19.50;75.00
19847;DHT22;10084;50.518;8.588;2022-10-31T11:17:52;19.40;74.90
19847;DHT22;10084;50.518;8.588;2022-10-31T11:22:45;19.40;74.90
19847;DHT22;10084;50.518;8.588;2022-10-31T11:25:25;19.40;74.90
19847;DHT22;10084;50.518;8.588;2022-10-31T11:28:09;19.50;75.00
19847;DHT22;10084;50.518;8.588;2022-10-31T11:30:43;19.50;75.10
19847;DHT22;10084;50.518;8.588;2022-10-31T11:33:31;19.60;75.00
19847;DHT22;10084;50.518;8.588;2022-10-31T11:35:57;19.60;75.00
19847;DHT22;10084;50.518;8.588;2022-10-31T11:38:29;19.70;75.00
19847;DHT22;10084;50.518;8.588;2022-10-31T11:43:30;20.00;75.10
19847;DHT22;10084;50.518;8.588;2022-10-31T11:45:56;20.20;75.30
19847;DHT22;10084;50.518;8.588;2022-10-31T11:48:24;20.50;75.20
19847;DHT22;10084;50.518;8.588;2022-10-31T11:50:53;20.90;74.90
19847;DHT22;10084;50.518;8.588;2022-10-31T11:53:25;21.20;74.20
19847;DHT22;10084;50.518;8.588;2022-10-31T11:56:13;21.50;73.60
19847;DHT22;10084;50.518;8.588;2022-10-31T11:58:39;21.70;73.00
19847;DHT22;10084;50.518;8.588;2022-10-31T12:01:05;21.90;72.70
19847;DHT22;10084;50.518;8.588;2022-10-31T12:03:48;22.00;72.40
19847;DHT22;10084;50.518;8.588;2022-10-31T12:06:24;22.20;72.00
19847;DHT22;10084;50.518;8.588;2022-10-31T12:08:52;22.30;71.60
19847;DHT22;10084;50.518;8.588;2022-10-31T12:11:32;22.30;71.50
19847;DHT22;10084;50.518;8.588;2022-10-31T12:14:12;22.40;71.30
19847;DHT22;10084;50.518;8.588;2022-10-31T12:19:36;22.40;70.90
19847;DHT22;10084;50.518;8.588;2022-10-31T12:25:02;22.20;70.70
19847;DHT22;10084;50.518;8.588;2022-10-31T12:36:54;21.70;70.80
19847;DHT22;10084;50.518;8.588;2022-10-31T12:39:37;21.60;70.90
19847;DHT22;10084;50.518;8.588;2022-10-31T12:48:03;21.50;70.90
19847;DHT22;10084;50.518;8.588;2022-10-31T12:53:32;21.50;70.80
19847;DHT22;10084;50.518;8.588;2022-10-31T12:58:34;21.50;70.70
19847;DHT22;10084;50.518;8.588;2022-10-31T13:01:24;21.40;70.50
19847;DHT22;10084;50.518;8.588;2022-10-31T13:04:12;21.30;70.50
19847;DHT22;10084;50.518;8.588;2022-10-31T13:06:54;21.30;70.50
19847;DHT22;10084;50.518;8.588;2022-10-31T13:09:38;21.20;70.50
19847;DHT22;10084;50.518;8.588;2022-10-31T13:12:10;21.10;70.50
19847;DHT22;10084;50.518;8.588;2022-10-31T13:14:43;21.00;70.40
19847;DHT22;10084;50.518;8.588;2022-10-31T13:19:49;20.90;70.60
19847;DHT22;10084;50.518;8.588;2022-10-31T13:22:20;20.80;70.50
19847;DHT22;10084;50.518;8.588;2022-10-31T13:27:51;20.70;70.60
19847;DHT22;10084;50.518;8.588;2022-10-31T13:30:23;20.60;70.40
19847;DHT22;10084;50.518;8.588;2022-10-31T13:32:55;20.50;70.30
19847;DHT22;10084;50.518;8.588;2022-10-31T13:38:09;20.30;70.60
19847;DHT22;10084;50.518;8.588;2022-10-31T13:40:45;20.20;70.80
19847;DHT22;10084;50.518;8.588;2022-10-31T13:43:28;20.10;71.10
19847;DHT22;10084;50.518;8.588;2022-10-31T13:45:55;20.10;71.40
19847;DHT22;10084;50.518;8.588;2022-10-31T13:51:05;20.20;71.40
19847;DHT22;10084;50.518;8.588;2022-10-31T13:53:44;20.20;71.30
19847;DHT22;10084;50.518;8.588;2022-10-31T13:59:23;20.20;71.10
19847;DHT22;10084;50.518;8.588;2022-10-31T14:01:59;20.10;71.10
19847;DHT22;10084;50.518;8.588;2022-10-31T14:04:44;20.10;71.30
19847;DHT22;10084;50.518;8.588;2022-10-31T14:07:14;20.00;71.30
19847;DHT22;10084;50.518;8.588;2022-10-31T14:12:30;19.80;71.60
19847;DHT22;10084;50.518;8.588;2022-10-31T14:15:04;19.80;71.70
19847;DHT22;10084;50.518;8.588;2022-10-31T14:17:45;19.70;71.80
19847;DHT22;10084;50.518;8.588;2022-10-31T14:22:38;19.70;72.20
19847;DHT22;10084;50.518;8.588;2022-10-31T14:25:31;19.70;72.30
19847;DHT22;10084;50.518;8.588;2022-10-31T14:27:59;19.60;72.40
19847;DHT22;10084;50.518;8.588;2022-10-31T14:30:27;19.50;72.70
19847;DHT22;10084;50.518;8.588;2022-10-31T14:33:12;19.50;72.60
19847;DHT22;10084;50.518;8.588;2022-10-31T14:36:08;19.40;72.80
19847;DHT22;10084;50.518;8.588;2022-10-31T14:38:46;19.30;72.90
19847;DHT22;10084;50.518;8.588;2022-10-31T14:44:17;19.20;73.20
19847;DHT22;10084;50.518;8.588;2022-10-31T14:46:58;19.20;73.30
19847;DHT22;10084;50.518;8.588;2022-10-31T14:49:48;19.10;73.30
19847;DHT22;10084;50.518;8.588;2022-10-31T14:52:17;19.10;73.50
19847;DHT22;10084;50.518;8.588;2022-10-31T14:54:48;19.00;73.50
19847;DHT22;10084;50.518;8.588;2022-10-31T14:57:22;19.00;73.60
19847;DHT22;10084;50.518;8.588;2022-10-31T14:59:52;18.90;73.60
19847;DHT22;10084;50.518;8.588;2022-10-31T15:05:16;18.80;73.70
19847;DHT22;10084;50.518;8.588;2022-10-31T15:07:52;18.80;73.80
19847;DHT22;10084;50.518;8.588;2022-10-31T15:10:30;18.80;74.00
19847;DHT22;10084;50.518;8.588;2022-10-31T15:13:18;18.70;74.00
19847;DHT22;10084;50.518;8.588;2022-10-31T15:15:45;18.70;74.20
19847;DHT22;10084;50.518;8.588;2022-10-31T15:18:23;18.70;74.30
19847;DHT22;10084;50.518;8.588;2022-10-31T15:20:50;18.60;74.30
19847;DHT22;10084;50.518;8.588;2022-10-31T15:23:23;18.60;74.40
19847;DHT22;10084;50.518;8.588;2022-10-31T15:25:50;18.60;74.40
19847;DHT22;10084;50.518;8.588;2022-10-31T15:28:22;18.60;74.50
19847;DHT22;10084;50.518;8.588;2022-10-31T15:30:56;18.60;74.60
19847;DHT22;10084;50.518;8.588;2022-10-31T15:33:25;18.50;74.50
19847;DHT22;10084;50.518;8.588;2022-10-31T15:35:56;18.50;74.60
19847;DHT22;10084;50.518;8.588;2022-10-31T15:38:22;18.50;74.60
19847;DHT22;10084;50.518;8.588;2022-10-31T15:40:54;18.40;74.60
19847;DHT22;10084;50.518;8.588;2022-10-31T15:43:20;18.40;74.70
19847;DHT22;10084;50.518;8.588;2022-10-31T15:45:46;18.30;74.70
19847;DHT22;10084;50.518;8.588;2022-10-31T15:48:17;18.30;74.80
19847;DHT22;10084;50.518;8.588;2022-10-31T15:50:55;18.20;74.90
19847;DHT22;10084;50.518;8.588;2022-10-31T15:53:34;18.10;75.00
19847;DHT22;10084;50.518;8.588;2022-10-31T15:56:04;18.00;75.10
19847;DHT22;10084;50.518;8.588;2022-10-31T15:58:33;18.00;75.30
19847;DHT22;10084;50.518;8.588;2022-10-31T16:01:02;17.90;75.60
19847;DHT22;10084;50.518;8.588;2022-10-31T16:03:31;17.80;75.60
19847;DHT22;10084;50.518;8.588;2022-10-31T16:05:59;17.70;75.70
19847;DHT22;10084;50.518;8.588;2022-10-31T16:08:33;17.60;75.80
19847;DHT22;10084;50.518;8.588;2022-10-31T16:14:00;17.40;76.10
19847;DHT22;10084;50.518;8.588;2022-10-31T16:16:28;17.40;76.20
19847;DHT22;10084;50.518;8.588;2022-10-31T16:18:55;17.40;76.30
19847;DHT22;10084;50.518;8.588;2022-10-31T16:21:26;17.30;76.30
19847;DHT22;10084;50.518;8.588;2022-10-31T16:23:57;17.30;76.40
19847;DHT22;10084;50.518;8.588;2022-10-31T16:26:24;17.30;76.30
19847;DHT22;10084;50.518;8.588;2022-10-31T16:28:55;17.30;76.50
19847;DHT22;10084;50.518;8.588;2022-10-31T16:31:29;17.20;76.50
19847;DHT22;10084;50.518;8.588;2022-10-31T16:34:15;17.20;76.60
19847;DHT22;10084;50.518;8.588;2022-10-31T16:36:41;17.10;76.70
19847;DHT22;10084;50.518;8.588;2022-10-31T16:39:07;17.10;77.00
19847;DHT22;10084;50.518;8.588;2022-10-31T16:41:41;17.10;77.10
19847;DHT22;10084;50.518;8.588;2022-10-31T16:44:25;17.10;76.90
19847;DHT22;10084;50.518;8.588;2022-10-31T16:49:31;17.00;76.60
19847;DHT22;10084;50.518;8.588;2022-10-31T16:51:57;17.00;76.50
19847;DHT22;10084;50.518;8.588;2022-10-31T16:54:23;16.90;76.60
19847;DHT22;10084;50.518;8.588;2022-10-31T16:56:48;16.90;76.70
19847;DHT22;10084;50.518;8.588;2022-10-31T16:59:14;16.80;76.70
19847;DHT22;10084;50.518;8.588;2022-10-31T17:01:41;16.80;76.70
19847;DHT22;10084;50.518;8.588;2022-10-31T17:04:13;16.70;76.80
19847;DHT22;10084;50.518;8.588;2022-10-31T17:06:40;16.60;77.00
19847;DHT22;10084;50.518;8.588;2022-10-31T17:09:06;16.60;77.10
19847;DHT22;10084;50.518;8.588;2022-10-31T17:11:31;16.50;77.30
19847;DHT22;10084;50.518;8.588;2022-10-31T17:13:57;16.40;77.40
19847;DHT22;10084;50.518;8.588;2022-10-31T17:16:23;16.40;77.50
19847;DHT22;10084;50.518;8.588;2022-10-31T17:18:49;16.40;77.50
19847;DHT22;10084;50.518;8.588;2022-10-31T17:21:21;16.40;77.60
19847;DHT22;10084;50.518;8.588;2022-10-31T17:23:48;16.40;77.70
19847;DHT22;10084;50.518;8.588;2022-10-31T17:26:14;16.30;77.70
19847;DHT22;10084;50.518;8.588;2022-10-31T17:28:40;16.30;77.70
19847;DHT22;10084;50.518;8.588;2022-10-31T17:31:07;16.30;78.40
19847;DHT22;10084;50.518;8.588;2022-10-31T17:33:36;16.30;77.70
19847;DHT22;10084;50.518;8.588;2022-10-31T17:36:02;16.30;77.80
19847;DHT22;10084;50.518;8.588;2022-10-31T17:38:28;16.20;77.80
19847;DHT22;10084;50.518;8.588;2022-10-31T17:40:54;16.20;78.00
19847;DHT22;10084;50.518;8.588;2022-10-31T17:43:20;16.10;78.00
19847;DHT22;10084;50.518;8.588;2022-10-31T17:45:46;16.10;78.00
19847;DHT22;10084;50.518;8.588;2022-10-31T17:48:11;16.10;78.00
19847;DHT22;10084;50.518;8.588;2022-10-31T17:50:37;16.10;78.70
19847;DHT22;10084;50.518;8.588;2022-10-31T17:53:03;16.00;78.10
19847;DHT22;10084;50.518;8.588;2022-10-31T17:55:29;16.00;78.20
19847;DHT22;10084;50.518;8.588;2022-10-31T17:57:55;15.90;78.30